Time;durP1;ratioP1;P1;durP2;ratioP2;P2;SDS_P1;SDS_P2;PMS_P1;PMS_P2;Temp;Humidity;BMP_temperature;BMP_pressure;BME280_temperature;BME280_humidity;BME280_pressure;Samples;Min_cycle;Max_cycle;Signal;HPM_P1;HPM_P2
2021/10/26 00:01:23;;;;;;;22.67;20.33;;;3.90;99.90;;;;;;4988673;28;20389;-82
2021/10/26 00:03:49;;;;;;;26.25;23.58;;;4.10;99.90;;;;;;4988861;28;20735;-80
2021/10/26 00:06:14;;;;;;;24.87;22.33;;;4.20;99.90;;;;;;4988900;28;20979;-83
2021/10/26 00:08:40;;;;;;;24.07;21.67;;;4.30;99.90;;;;;;4988148;28;20420;-82
2021/10/26 00:11:05;;;;;;;23.92;21.52;;;4.50;99.90;;;;;;4989385;28;20949;-82
2021/10/26 00:13:31;;;;;;;24.95;22.35;;;4.60;99.90;;;;;;4989822;28;20472;-82
2021/10/26 00:15:57;;;;;;;24.37;21.87;;;4.70;99.90;;;;;;4988424;28;20444;-81
2021/10/26 00:18:22;;;;;;;26.17;23.33;;;4.80;99.90;;;;;;4989657;28;20416;-83
2021/10/26 00:20:48;;;;;;;26.33;23.52;;;4.90;99.90;;;;;;4990950;28;20373;-82
2021/10/26 00:23:14;;;;;;;24.13;21.65;;;5.00;99.90;;;;;;4989277;28;20441;-81
2021/10/26 00:25:40;;;;;;;22.98;20.58;;;5.10;99.90;;;;;;4990448;28;20377;-82
2021/10/26 00:28:06;;;;;;;25.08;22.58;;;5.20;99.90;;;;;;4989672;28;20463;-82
2021/10/26 00:30:32;;;;;;;26.13;23.58;;;5.30;99.90;;;;;;4989365;28;20393;-81
2021/10/26 00:32:58;;;;;;;25.80;23.23;;;5.40;99.90;;;;;;4988540;28;20396;-81
2021/10/26 00:35:28;;;;;;;25.70;23.05;;;5.60;99.90;;;;;;4988245;28;20739;-82
2021/10/26 00:37:55;;;;;;;28.43;25.40;;;5.60;99.90;;;;;;4987915;28;20389;-83
2021/10/26 00:40:22;;;;;;;26.83;24.13;;;5.60;99.90;;;;;;4987456;28;20451;-83
2021/10/26 00:42:48;;;;;;;26.73;24.00;;;5.70;99.90;;;;;;4989615;28;20576;-82
2021/10/26 00:45:13;;;;;;;27.08;24.15;;;5.80;99.90;;;;;;4988946;28;20412;-80
2021/10/26 00:47:39;;;;;;;27.20;24.27;;;5.90;99.90;;;;;;4989540;28;20759;-83
2021/10/26 00:50:05;;;;;;;28.60;25.67;;;5.90;99.90;;;;;;4989235;28;20397;-81
2021/10/26 00:52:31;;;;;;;27.42;24.65;;;6.00;99.90;;;;;;4989234;28;20373;-81
2021/10/26 00:54:58;;;;;;;29.42;26.27;;;6.10;99.90;;;;;;4989079;28;20794;-82
2021/10/26 00:57:26;;;;;;;27.38;24.63;;;6.30;99.90;;;;;;4989405;28;20391;-82
2021/10/26 00:59:52;;;;;;;28.83;25.83;;;6.30;99.90;;;;;;4988970;28;20404;-84
2021/10/26 01:02:18;;;;;;;31.23;26.47;;;6.40;99.90;;;;;;4987200;28;20921;-83
2021/10/26 01:04:44;;;;;;;26.50;23.83;;;6.40;99.90;;;;;;4987708;28;20471;-82
2021/10/26 01:07:10;;;;;;;26.42;23.83;;;6.50;99.90;;;;;;4989183;28;20534;-83
2021/10/26 01:09:35;;;;;;;26.30;23.63;;;6.50;99.90;;;;;;4988961;28;20427;-84
2021/10/26 01:12:01;;;;;;;23.08;20.77;;;6.50;99.90;;;;;;4989413;28;20855;-82
2021/10/26 01:14:27;;;;;;;26.05;23.45;;;6.50;99.90;;;;;;4988645;28;20428;-82
2021/10/26 01:16:53;;;;;;;31.33;27.83;;;6.60;99.90;;;;;;4989154;28;20894;-83
2021/10/26 01:19:19;;;;;;;25.87;23.47;;;6.60;99.90;;;;;;4989219;28;20468;-83
2021/10/26 01:21:44;;;;;;;27.00;24.20;;;6.60;99.90;;;;;;4989185;28;20755;-83
2021/10/26 01:24:10;;;;;;;23.02;20.80;;;6.60;99.90;;;;;;4988365;28;20405;-83
2021/10/26 01:26:35;;;;;;;24.42;21.92;;;6.60;99.90;;;;;;4989217;28;20396;-81
2021/10/26 01:29:01;;;;;;;27.07;24.37;;;6.60;99.90;;;;;;4990594;28;20413;-81
2021/10/26 01:31:27;;;;;;;26.03;23.33;;;6.50;99.90;;;;;;4991036;28;20389;-81
2021/10/26 01:33:53;;;;;;;25.03;22.53;;;6.40;99.90;;;;;;4991855;28;20391;-82
2021/10/26 01:36:20;;;;;;;31.33;28.03;;;6.40;99.90;;;;;;4992725;28;20410;-83
2021/10/26 01:38:47;;;;;;;27.95;25.05;;;6.30;99.90;;;;;;4992803;28;20400;-83
2021/10/26 01:41:12;;;;;;;25.23;22.70;;;6.20;99.90;;;;;;4992657;28;20412;-82
2021/10/26 01:43:38;;;;;;;24.95;22.35;;;6.10;99.90;;;;;;4992698;28;20472;-83
2021/10/26 01:46:04;;;;;;;23.75;21.23;;;6.10;99.90;;;;;;4992877;28;20442;-83
2021/10/26 01:48:30;;;;;;;26.15;23.35;;;6.00;99.90;;;;;;4992847;28;20404;-81
2021/10/26 01:50:58;;;;;;;24.88;22.48;;;5.90;99.90;;;;;;4992720;28;20902;-84
2021/10/26 01:53:24;;;;;;;29.25;26.15;;;5.80;99.90;;;;;;4993147;28;20414;-81
2021/10/26 01:55:50;;;;;;;30.33;27.08;;;5.80;99.90;;;;;;4992567;28;20455;-83
2021/10/26 01:58:16;;;;;;;28.33;25.45;;;5.70;99.90;;;;;;4990705;28;20404;-83
2021/10/26 02:00:41;;;;;;;28.23;24.70;;;5.60;99.90;;;;;;4993034;28;20397;-83
2021/10/26 02:03:07;;;;;;;30.50;27.20;;;5.60;99.90;;;;;;4992822;28;20451;-81
2021/10/26 02:05:32;;;;;;;30.02;26.67;;;5.60;99.90;;;;;;4991988;28;20759;-81
2021/10/26 02:07:58;;;;;;;31.83;28.47;;;5.50;99.90;;;;;;4991249;28;20419;-81
2021/10/26 02:10:23;;;;;;;35.00;30.77;;;5.60;99.90;;;;;;4990139;28;20409;-81
2021/10/26 02:12:49;;;;;;;31.15;27.63;;;5.70;99.90;;;;;;4991701;28;20385;-83
2021/10/26 02:15:17;;;;;;;26.98;24.08;;;5.70;99.90;;;;;;4991966;28;20437;-83
2021/10/26 02:17:42;;;;;;;27.33;24.63;;;5.70;99.90;;;;;;4990637;28;20500;-81
2021/10/26 02:20:09;;;;;;;28.27;25.40;;;5.70;99.90;;;;;;4991751;28;20457;-82
2021/10/26 02:22:35;;;;;;;29.65;26.48;;;5.70;99.90;;;;;;4990649;28;20392;-81
2021/10/26 02:25:00;;;;;;;33.70;27.85;;;5.70;99.90;;;;;;4991406;28;20408;-82
2021/10/26 02:27:26;;;;;;;26.20;23.70;;;5.60;99.90;;;;;;4989266;28;20934;-82
2021/10/26 02:29:51;;;;;;;31.27;28.07;;;5.70;99.90;;;;;;4990240;28;20783;-81
2021/10/26 02:32:17;;;;;;;28.40;25.38;;;5.70;99.90;;;;;;4990351;28;20392;-82
2021/10/26 02:34:42;;;;;;;30.30;27.10;;;5.80;99.90;;;;;;4990011;28;20404;-82
2021/10/26 02:37:08;;;;;;;29.60;26.40;;;5.80;99.90;;;;;;4990886;28;20430;-82
2021/10/26 02:39:33;;;;;;;32.90;29.33;;;5.70;99.90;;;;;;4990285;28;20813;-83
2021/10/26 02:41:59;;;;;;;28.50;25.53;;;5.70;99.90;;;;;;4991134;28;20437;-81
2021/10/26 02:44:25;;;;;;;28.00;25.17;;;5.70;99.90;;;;;;4989984;28;20481;-81
2021/10/26 02:46:50;;;;;;;28.40;25.33;;;5.70;99.90;;;;;;4989437;28;20400;-80
2021/10/26 02:49:16;;;;;;;28.83;25.88;;;5.70;99.90;;;;;;4991081;28;20423;-81
2021/10/26 02:51:41;;;;;;;25.73;23.03;;;5.70;99.90;;;;;;4991066;28;20871;-83
2021/10/26 02:54:07;;;;;;;27.30;24.53;;;5.80;99.90;;;;;;4989610;28;20740;-81
2021/10/26 02:56:33;;;;;;;26.65;23.90;;;5.80;99.90;;;;;;4989691;28;20495;-81
2021/10/26 02:58:58;;;;;;;28.20;25.20;;;5.80;99.90;;;;;;4991140;28;20523;-81
2021/10/26 03:01:24;;;;;;;26.90;24.15;;;5.90;99.90;;;;;;4991250;28;20795;-81
2021/10/26 03:03:51;;;;;;;27.57;24.87;;;6.00;99.90;;;;;;4990867;28;20422;-83
2021/10/26 03:06:17;;;;;;;26.25;23.55;;;6.00;99.90;;;;;;4989997;28;20397;-82
2021/10/26 03:08:42;;;;;;;25.73;23.13;;;6.10;99.90;;;;;;4991057;28;20412;-81
2021/10/26 03:11:08;;;;;;;26.33;23.63;;;6.10;99.90;;;;;;4989058;28;20418;-81
2021/10/26 03:13:34;;;;;;;23.63;21.33;;;6.20;99.90;;;;;;4990997;28;20385;-83
2021/10/26 03:16:00;;;;;;;24.97;22.40;;;6.20;99.90;;;;;;4990895;28;20381;-81
2021/10/26 03:18:26;;;;;;;26.90;24.20;;;6.30;99.90;;;;;;4990449;28;20392;-82
2021/10/26 03:20:51;;;;;;;25.47;22.87;;;6.30;99.90;;;;;;4991274;28;20439;-81
2021/10/26 03:23:18;;;;;;;23.98;21.52;;;6.40;99.90;;;;;;4990350;28;20739;-82
2021/10/26 03:25:44;;;;;;;25.35;22.95;;;6.40;99.90;;;;;;4989643;28;20447;-82
2021/10/26 03:28:10;;;;;;;23.63;21.33;;;6.40;99.90;;;;;;4988699;28;20447;-81
2021/10/26 03:30:36;;;;;;;21.93;19.67;;;6.40;99.90;;;;;;4989650;28;20396;-82
2021/10/26 03:33:03;;;;;;;21.38;19.48;;;6.40;99.90;;;;;;4989673;28;20381;-84
2021/10/26 03:35:29;;;;;;;23.15;20.85;;;6.30;99.90;;;;;;4990830;28;20385;-81
2021/10/26 03:37:55;;;;;;;22.30;20.20;;;6.30;99.90;;;;;;4990528;28;20388;-82
2021/10/26 03:40:21;;;;;;;22.40;20.30;;;6.30;99.90;;;;;;4988329;28;20405;-83
2021/10/26 03:42:46;;;;;;;23.40;21.00;;;6.30;99.90;;;;;;4989867;28;20422;-83
2021/10/26 03:45:12;;;;;;;26.83;24.13;;;6.30;99.90;;;;;;4990530;28;20389;-83
2021/10/26 03:47:42;;;;;;;26.87;23.77;;;6.30;99.90;;;;;;4989919;28;20400;-83
2021/10/26 03:50:09;;;;;;;23.38;21.17;;;6.20;99.90;;;;;;4990627;28;20503;-81
2021/10/26 03:52:35;;;;;;;22.20;19.90;;;6.20;99.90;;;;;;4989589;28;20399;-81
2021/10/26 03:55:01;;;;;;;22.23;20.08;;;6.20;99.90;;;;;;4990007;28;20732;-81
2021/10/26 03:57:27;;;;;;;21.53;19.40;;;6.20;99.90;;;;;;4988891;28;20543;-82
2021/10/26 03:59:53;;;;;;;24.48;21.88;;;6.10;99.90;;;;;;4988911;28;20405;-81
2021/10/26 04:02:28;;;;;;;24.70;22.20;;;6.10;99.90;;;;;;4989856;28;20418;-83
2021/10/26 04:05:00;;;;;;;23.15;20.90;;;6.10;99.90;;;;;;4989248;28;20392;-81
2021/10/26 04:07:26;;;;;;;23.80;21.40;;;6.10;99.90;;;;;;4989802;28;20392;-82
2021/10/26 04:09:57;;;;;;;20.75;18.75;;;6.10;99.90;;;;;;4990004;28;20384;-84
2021/10/26 04:12:26;;;;;;;22.27;20.07;;;6.10;99.90;;;;;;4989820;28;20402;-80
2021/10/26 04:14:56;;;;;;;22.02;19.92;;;6.10;99.90;;;;;;4990022;28;20380;-82
2021/10/26 04:17:24;;;;;;;20.88;18.77;;;6.20;99.90;;;;;;4987877;28;20404;-83
2021/10/26 04:19:50;;;;;;;22.02;19.95;;;6.30;99.90;;;;;;4990293;28;20887;-81
2021/10/26 04:22:17;;;;;;;21.77;19.65;;;6.40;99.90;;;;;;4989730;28;20694;-82
2021/10/26 04:24:44;;;;;;;22.02;19.77;;;6.40;99.90;;;;;;4989827;28;20392;-82
2021/10/26 04:27:11;;;;;;;22.63;20.40;;;6.50;99.90;;;;;;4989549;28;20396;-83
2021/10/26 04:29:36;;;;;;;22.15;19.88;;;6.60;99.90;;;;;;4989886;28;20409;-81
2021/10/26 04:32:02;;;;;;;22.47;20.07;;;6.70;99.90;;;;;;4987884;28;20389;-82
2021/10/26 04:34:30;;;;;;;22.13;19.88;;;6.70;99.90;;;;;;4988569;28;21613;-81
2021/10/26 04:36:56;;;;;;;23.30;21.00;;;6.80;99.90;;;;;;4990172;28;20385;-82
2021/10/26 04:39:22;;;;;;;21.47;19.30;;;6.80;99.90;;;;;;4989511;28;20459;-82
2021/10/26 04:41:48;;;;;;;22.27;19.97;;;6.90;99.90;;;;;;4987933;28;20401;-81
2021/10/26 04:44:13;;;;;;;23.83;21.30;;;6.90;99.90;;;;;;4989631;28;20446;-83
2021/10/26 04:46:39;;;;;;;24.03;21.43;;;7.00;99.90;;;;;;4988531;28;20787;-82
2021/10/26 04:49:05;;;;;;;22.58;20.30;;;7.00;99.90;;;;;;4989291;28;20408;-81
2021/10/26 04:51:30;;;;;;;22.27;20.07;;;7.10;99.90;;;;;;4989082;28;20899;-82
2021/10/26 04:53:56;;;;;;;21.40;19.30;;;7.10;99.90;;;;;;4988876;28;20396;-81
2021/10/26 04:56:21;;;;;;;21.20;19.10;;;7.20;99.90;;;;;;4988189;28;20416;-83
2021/10/26 04:58:47;;;;;;;20.63;18.52;;;7.30;99.90;;;;;;4981239;28;20735;-84
2021/10/26 05:01:13;;;;;;;20.90;18.87;;;7.30;99.90;;;;;;4989215;28;20380;-82
2021/10/26 05:03:38;;;;;;;21.27;19.13;;;7.40;99.90;;;;;;4992041;28;20389;-83
2021/10/26 05:06:04;;;;;;;21.75;19.45;;;7.40;99.90;;;;;;4993172;28;20464;-80
2021/10/26 05:08:30;;;;;;;20.57;18.47;;;7.40;99.90;;;;;;4993296;28;20401;-82
2021/10/26 05:10:56;;;;;;;21.88;19.63;;;7.50;99.90;;;;;;4990213;28;20412;-82
2021/10/26 05:13:22;;;;;;;21.88;19.88;;;7.60;99.90;;;;;;4993281;28;20397;-82
2021/10/26 05:15:51;;;;;;;23.25;20.75;;;7.60;99.90;;;;;;4993440;28;20423;-83
2021/10/26 05:18:16;;;;;;;23.98;21.63;;;7.70;99.90;;;;;;4991404;28;20395;-83
2021/10/26 05:20:46;;;;;;;24.20;21.83;;;7.70;99.90;;;;;;4993136;28;20405;-81
2021/10/26 05:23:11;;;;;;;25.35;22.10;;;7.70;99.90;;;;;;4991406;28;20467;-81
2021/10/26 05:25:37;;;;;;;23.50;21.03;;;7.70;99.90;;;;;;4993090;28;20491;-81
2021/10/26 05:28:03;;;;;;;24.17;21.65;;;7.80;99.90;;;;;;4992483;28;20777;-83
2021/10/26 05:30:29;;;;;;;23.95;21.55;;;7.90;99.90;;;;;;4993016;28;20392;-82
2021/10/26 05:32:55;;;;;;;22.83;20.42;;;7.90;99.90;;;;;;4993012;28;20601;-81
2021/10/26 05:35:20;;;;;;;21.90;19.73;;;7.90;99.90;;;;;;4991730;28;20870;-80
2021/10/26 05:37:46;;;;;;;23.07;20.60;;;8.00;99.90;;;;;;4991136;28;20941;-82
2021/10/26 05:40:12;;;;;;;22.67;20.33;;;8.00;99.90;;;;;;4993033;28;20404;-81
2021/10/26 05:42:38;;;;;;;24.67;22.08;;;8.00;99.90;;;;;;4990810;28;20409;-82
2021/10/26 05:45:05;;;;;;;25.10;22.05;;;8.10;99.90;;;;;;4991941;28;20438;-81
2021/10/26 05:47:31;;;;;;;21.73;19.63;;;8.10;99.90;;;;;;4992200;28;20464;-81
2021/10/26 05:49:56;;;;;;;24.08;21.63;;;8.10;99.90;;;;;;4991405;28;20898;-82
2021/10/26 05:52:22;;;;;;;22.53;20.20;;;8.10;99.90;;;;;;4991403;28;20432;-83
2021/10/26 05:54:47;;;;;;;23.33;20.90;;;8.20;99.90;;;;;;4991510;28;21083;-83
2021/10/26 05:57:13;;;;;;;20.30;18.37;;;8.20;99.90;;;;;;4991565;28;20490;-82
2021/10/26 05:59:39;;;;;;;19.00;17.25;;;8.20;99.90;;;;;;4992223;28;20388;-82
2021/10/26 06:02:04;;;;;;;21.52;19.52;;;8.30;99.90;;;;;;4991163;28;20373;-83
2021/10/26 06:04:30;;;;;;;23.20;20.77;;;8.30;99.90;;;;;;4990898;28;20859;-83
2021/10/26 06:06:56;;;;;;;21.27;19.08;;;8.30;99.90;;;;;;4990628;28;20380;-83
2021/10/26 06:09:22;;;;;;;24.10;21.08;;;8.40;99.90;;;;;;4991647;28;20415;-84
2021/10/26 06:11:50;;;;;;;21.23;19.13;;;8.50;99.90;;;;;;4990731;28;20884;-80
2021/10/26 06:14:16;;;;;;;23.97;21.53;;;8.50;99.90;;;;;;4991573;28;20393;-83
2021/10/26 06:16:42;;;;;;;25.50;22.90;;;8.60;99.90;;;;;;4992668;28;20736;-83
2021/10/26 06:19:09;;;;;;;23.55;20.95;;;8.70;99.90;;;;;;4992553;28;20391;-83
2021/10/26 06:21:35;;;;;;;25.60;21.73;;;8.70;99.90;;;;;;4992785;28;20441;-84
2021/10/26 06:24:01;;;;;;;23.02;20.58;;;8.80;99.90;;;;;;4990789;28;20397;-83
2021/10/26 06:26:27;;;;;;;24.05;21.55;;;8.90;99.90;;;;;;4992676;28;20384;-82
2021/10/26 06:28:53;;;;;;;21.85;19.60;;;8.90;99.90;;;;;;4992251;28;20401;-82
2021/10/26 06:31:18;;;;;;;22.35;20.08;;;8.90;99.90;;;;;;4991198;28;20800;-82
2021/10/26 06:33:45;;;;;;;21.23;19.03;;;9.00;99.90;;;;;;4992114;28;20387;-83
2021/10/26 06:36:11;;;;;;;23.73;21.23;;;9.10;99.90;;;;;;4991271;28;20401;-82
2021/10/26 06:38:38;;;;;;;24.80;22.23;;;9.00;99.90;;;;;;4992240;28;20739;-82
2021/10/26 06:41:04;;;;;;;26.10;23.45;;;9.10;99.90;;;;;;4990655;28;20455;-81
2021/10/26 06:43:31;;;;;;;24.52;22.05;;;9.10;99.90;;;;;;4992188;28;20373;-82
2021/10/26 06:45:57;;;;;;;26.77;23.98;;;9.20;99.90;;;;;;4992018;28;20440;-82
2021/10/26 06:48:23;;;;;;;25.52;22.73;;;9.20;99.90;;;;;;4990382;28;20413;-82
2021/10/26 06:50:49;;;;;;;28.27;24.17;;;9.40;99.90;;;;;;4991684;28;20472;-81
2021/10/26 06:53:15;;;;;;;25.83;23.00;;;9.50;99.90;;;;;;4991463;28;20394;-83
2021/10/26 06:55:43;;;;;;;26.55;23.65;;;9.50;99.90;;;;;;4990356;28;20389;-82
2021/10/26 06:58:08;;;;;;;26.45;23.17;;;9.60;99.90;;;;;;4990959;28;20755;-82
2021/10/26 07:00:34;;;;;;;26.17;23.20;;;9.70;99.90;;;;;;4991727;28;20385;-83
2021/10/26 07:03:03;;;;;;;26.33;23.43;;;9.80;99.90;;;;;;4990747;28;20440;-83
2021/10/26 07:05:28;;;;;;;27.35;23.20;;;9.80;99.90;;;;;;4990439;28;20447;-82
2021/10/26 07:07:54;;;;;;;29.83;25.25;;;9.80;99.90;;;;;;4976491;28;20826;-82
2021/10/26 07:10:20;;;;;;;27.13;24.20;;;9.80;99.90;;;;;;4985501;28;20496;-82
2021/10/26 07:12:47;;;;;;;29.27;24.98;;;9.80;99.90;;;;;;4988092;28;20361;-82
2021/10/26 07:15:14;;;;;;;29.13;26.00;;;9.90;99.90;;;;;;4988658;28;20812;-82
2021/10/26 07:17:40;;;;;;;27.23;23.75;;;10.00;99.90;;;;;;4988264;28;20400;-81
2021/10/26 07:20:11;;;;;;;27.80;24.83;;;10.20;99.90;;;;;;4986657;28;20389;-83
2021/10/26 07:22:38;;;;;;;28.10;25.02;;;10.30;99.90;;;;;;4988168;28;20381;-82
2021/10/26 07:25:08;;;;;;;28.92;24.60;;;10.40;99.90;;;;;;4987485;28;20949;-83
2021/10/26 07:27:35;;;;;;;29.73;26.52;;;10.50;99.90;;;;;;4987200;28;20381;-82
2021/10/26 07:30:02;;;;;;;29.50;26.27;;;10.60;99.90;;;;;;4986502;28;20443;-83
2021/10/26 07:32:28;;;;;;;30.73;26.15;;;10.70;99.90;;;;;;4987740;28;20446;-82
2021/10/26 07:34:53;;;;;;;30.03;25.23;;;10.70;99.90;;;;;;4987244;28;21046;-83
2021/10/26 07:37:36;;;;;;;31.10;26.60;;;10.80;99.90;;;;;;4987832;28;20812;-82
2021/10/26 07:40:03;;;;;;;30.67;26.13;;;10.80;99.90;;;;;;4985466;28;20403;-83
2021/10/26 07:42:28;;;;;;;30.52;26.15;;;10.80;99.90;;;;;;4986659;28;20395;-82
2021/10/26 07:44:55;;;;;;;30.63;26.60;;;10.90;99.90;;;;;;4987817;28;20405;-82
2021/10/26 07:47:21;;;;;;;33.58;28.50;;;10.90;99.90;;;;;;4987192;28;20389;-83
2021/10/26 07:49:48;;;;;;;31.83;27.77;;;10.90;99.90;;;;;;4987463;28;20411;-83
2021/10/26 07:52:15;;;;;;;31.15;26.80;;;10.90;99.90;;;;;;4987632;28;20449;-82
2021/10/26 07:54:44;;;;;;;33.42;25.88;;;10.80;99.90;;;;;;4986689;28;20380;-82
2021/10/26 07:57:10;;;;;;;30.25;25.27;;;10.80;99.90;;;;;;4987554;28;20463;-82
2021/10/26 07:59:36;;;;;;;28.30;25.20;;;11.00;99.90;;;;;;4976817;28;20836;-82
2021/10/26 08:02:01;;;;;;;27.33;24.17;;;11.00;99.90;;;;;;4986818;28;20388;-83
2021/10/26 08:04:27;;;;;;;28.33;25.08;;;11.00;99.90;;;;;;4983175;28;20397;-82
2021/10/26 08:06:54;;;;;;;27.10;24.30;;;11.10;99.90;;;;;;4987673;28;20890;-83
2021/10/26 08:09:20;;;;;;;28.50;25.58;;;11.30;99.90;;;;;;4987397;28;20474;-83
2021/10/26 08:11:46;;;;;;;30.45;25.60;;;11.30;99.90;;;;;;4987534;28;20483;-82
2021/10/26 08:14:12;;;;;;;30.25;24.70;;;11.30;99.90;;;;;;4990400;28;20463;-82
2021/10/26 08:16:38;;;;;;;28.15;24.08;;;11.40;99.90;;;;;;4992449;28;20377;-83
2021/10/26 08:19:05;;;;;;;28.77;24.47;;;11.40;99.90;;;;;;4992558;28;20395;-83
2021/10/26 08:21:32;;;;;;;28.52;24.38;;;11.50;99.90;;;;;;4974267;28;20386;-82
2021/10/26 08:24:00;;;;;;;28.27;25.13;;;11.50;99.90;;;;;;4984041;28;20477;-83
2021/10/26 08:26:29;;;;;;;30.42;24.67;;;11.60;99.90;;;;;;4976473;28;20411;-83
2021/10/26 08:29:10;;;;;;;28.40;24.33;;;11.70;99.90;;;;;;4989999;28;20435;-84
2021/10/26 08:31:47;;;;;;;28.45;24.02;;;11.60;99.90;;;;;;4991338;28;20396;-80
2021/10/26 08:34:19;;;;;;;33.35;24.80;;;11.50;99.90;;;;;;4989953;28;20463;-82
2021/10/26 08:36:45;;;;;;;37.10;26.52;;;11.60;99.90;;;;;;4990935;28;20381;-83
2021/10/26 08:39:12;;;;;;;46.40;28.92;;;11.70;99.90;;;;;;4988951;28;20775;-83
2021/10/26 08:41:44;;;;;;;36.95;26.92;;;11.70;99.90;;;;;;4988854;28;20401;-84
2021/10/26 08:44:10;;;;;;;31.25;26.13;;;11.70;99.90;;;;;;4990321;28;20412;-83
2021/10/26 08:46:36;;;;;;;29.20;24.13;;;11.70;99.90;;;;;;4991500;28;20408;-83
2021/10/26 08:49:02;;;;;;;30.83;24.80;;;11.80;99.90;;;;;;4990049;28;20412;-82
2021/10/26 08:51:27;;;;;;;29.27;24.38;;;12.00;99.90;;;;;;4989998;28;20377;-82
2021/10/26 08:53:55;;;;;;;28.23;23.63;;;12.20;99.90;;;;;;4990076;28;21059;-82
2021/10/26 08:56:22;;;;;;;27.73;23.75;;;12.30;99.90;;;;;;4989905;28;20377;-83
2021/10/26 08:58:48;;;;;;;29.07;23.20;;;12.40;99.90;;;;;;4980362;28;20401;-83
2021/10/26 09:01:15;;;;;;;24.87;21.77;;;12.60;99.90;;;;;;4980261;28;20448;-82
2021/10/26 09:03:40;;;;;;;26.60;22.13;;;12.70;99.90;;;;;;4986181;28;20381;-84
2021/10/26 09:06:10;;;;;;;26.83;21.77;;;12.90;99.90;;;;;;4987184;28;20371;-83
2021/10/26 09:08:36;;;;;;;27.98;21.45;;;12.90;99.90;;;;;;4987392;28;20409;-83
2021/10/26 09:19:16;;;;;;;25.50;20.60;;;12.80;99.90;;;;;;4969398;28;20397;-82
2021/10/26 09:21:43;;;;;;;27.70;21.85;;;12.80;99.90;;;;;;4983772;28;20867;-82
2021/10/26 09:24:12;;;;;;;26.50;19.90;;;12.80;99.90;;;;;;4989652;28;20465;-83
2021/10/26 09:26:56;;;;;;;23.80;19.48;;;13.00;99.90;;;;;;4989162;28;20388;-83
2021/10/26 09:29:40;;;;;;;24.65;20.08;;;13.20;99.90;;;;;;4989004;28;20516;-83
2021/10/26 09:32:07;;;;;;;27.87;19.97;;;13.30;99.90;;;;;;4988411;28;20431;-83
2021/10/26 09:34:40;;;;;;;21.67;18.23;;;13.40;99.90;;;;;;4989442;28;20380;-82
2021/10/26 09:37:06;;;;;;;26.17;19.47;;;13.50;99.90;;;;;;4989663;28;20476;-84
2021/10/26 09:39:32;;;;;;;23.63;18.17;;;13.60;99.90;;;;;;4989237;28;20532;-83
2021/10/26 09:42:03;;;;;;;19.95;16.33;;;13.70;99.90;;;;;;4989706;28;20388;-84
2021/10/26 09:44:36;;;;;;;24.35;17.20;;;13.70;99.90;;;;;;4987889;28;20467;-83
2021/10/26 09:47:10;;;;;;;21.27;16.70;;;13.60;99.90;;;;;;4980664;28;20404;-84
2021/10/26 09:49:39;;;;;;;19.25;15.70;;;13.80;99.90;;;;;;4990337;28;20522;-83
2021/10/26 09:52:22;;;;;;;18.70;15.27;;;14.00;99.90;;;;;;4991798;28;20732;-85
2021/10/26 09:54:58;;;;;;;19.70;14.95;;;14.10;99.90;;;;;;4982672;28;20509;-85
2021/10/26 09:57:38;;;;;;;21.00;15.97;;;14.10;99.90;;;;;;4972571;28;20410;-83
2021/10/26 10:00:09;;;;;;;18.05;15.63;;;14.00;99.90;;;;;;4963815;28;20402;-81
2021/10/26 10:02:34;;;;;;;19.75;15.15;;;13.90;99.90;;;;;;4991350;28;20435;-83
2021/10/26 10:05:04;;;;;;;19.08;15.02;;;13.90;99.90;;;;;;4992247;28;20388;-84
2021/10/26 10:07:36;;;;;;;20.75;15.95;;;14.10;99.90;;;;;;4991713;28;20433;-84
2021/10/26 10:10:04;;;;;;;21.27;16.13;;;14.00;99.90;;;;;;4992164;28;20416;-84
2021/10/26 10:12:32;;;;;;;19.27;15.77;;;13.90;99.90;;;;;;4991992;28;20396;-83
2021/10/26 10:14:58;;;;;;;19.70;16.25;;;13.80;99.90;;;;;;4992360;28;20401;-84
2021/10/26 10:17:25;;;;;;;19.67;16.50;;;13.70;99.90;;;;;;4992636;28;20411;-83
2021/10/26 10:19:53;;;;;;;22.07;16.33;;;13.60;99.90;;;;;;4990928;28;20395;-83
2021/10/26 10:22:21;;;;;;;21.33;17.35;;;13.70;99.90;;;;;;4990330;28;20477;-84
2021/10/26 10:24:50;;;;;;;23.73;15.60;;;13.80;99.90;;;;;;4991247;28;20487;-83
2021/10/26 10:27:18;;;;;;;18.95;15.40;;;14.00;99.90;;;;;;4991121;28;20385;-84
2021/10/26 10:29:45;;;;;;;19.00;15.38;;;14.00;99.90;;;;;;4992017;28;20933;-82
2021/10/26 10:32:11;;;;;;;20.37;16.00;;;14.00;99.90;;;;;;4991900;28;20875;-83
2021/10/26 10:34:37;;;;;;;21.17;16.60;;;14.00;99.90;;;;;;4990499;28;20405;-86
2021/10/26 10:37:04;;;;;;;19.47;16.70;;;13.90;99.90;;;;;;4992374;28;20411;-83
2021/10/26 10:39:34;;;;;;;20.07;16.67;;;14.00;99.90;;;;;;4992991;28;20447;-84
2021/10/26 10:42:25;;;;;;;19.40;16.13;;;14.10;99.90;;;;;;4976436;28;20440;-81
2021/10/26 10:44:56;;;;;;;20.38;15.65;;;14.20;99.90;;;;;;4986820;28;20480;-83
2021/10/26 10:47:40;;;;;;;18.73;16.20;;;14.50;99.90;;;;;;4988255;28;20891;-82
2021/10/26 10:50:27;;;;;;;22.90;18.13;;;14.60;99.90;;;;;;4988583;28;20894;-84
2021/10/26 10:53:21;;;;;;;21.60;18.37;;;14.50;99.90;;;;;;4988229;28;20428;-84
2021/10/26 10:55:48;;;;;;;23.85;18.20;;;14.50;99.90;;;;;;4987286;28;20408;-82
2021/10/26 10:58:25;;;;;;;24.23;19.53;;;14.50;99.90;;;;;;4988387;28;20381;-83
2021/10/26 11:00:53;;;;;;;22.50;18.15;;;14.50;99.90;;;;;;4986949;28;20401;-83
2021/10/26 11:03:30;;;;;;;22.13;19.65;;;14.50;99.90;;;;;;4989399;28;20373;-85
2021/10/26 11:05:56;;;;;;;25.27;19.70;;;14.30;99.90;;;;;;4987905;28;20428;-82
2021/10/26 11:08:46;;;;;;;21.90;18.50;;;14.40;99.90;;;;;;4988864;28;20918;-83
2021/10/26 11:11:15;;;;;;;24.17;18.75;;;14.50;99.90;;;;;;4981354;28;21016;-82
2021/10/26 11:13:41;;;;;;;21.67;18.48;;;14.60;99.90;;;;;;4989127;28;20464;-85
2021/10/26 11:16:12;;;;;;;23.63;18.55;;;14.90;99.90;;;;;;4989006;28;20404;-86
2021/10/26 11:18:41;;;;;;;21.27;18.75;;;15.20;99.90;;;;;;4988085;28;20496;-83
2021/10/26 11:21:19;;;;;;;22.02;18.25;;;15.30;99.90;;;;;;4992578;28;20393;-82
2021/10/26 11:23:45;;;;;;;25.00;18.42;;;15.40;99.90;;;;;;4991072;28;20400;-84
2021/10/26 11:26:18;;;;;;;20.67;17.42;;;15.70;99.90;;;;;;4988703;28;20443;-84
2021/10/26 11:28:55;;;;;;;20.40;17.48;;;15.60;99.90;;;;;;4989096;28;20415;-86
2021/10/26 11:31:25;;;;;;;21.95;18.38;;;15.40;99.90;;;;;;4988901;28;20400;-84
2021/10/26 11:34:00;;;;;;;23.70;18.52;;;15.10;99.90;;;;;;4990891;28;20446;-83
2021/10/26 11:36:31;;;;;;;22.20;18.02;;;15.00;99.90;;;;;;4990726;28;20401;-85
2021/10/26 11:38:59;;;;;;;20.60;17.10;;;15.10;99.90;;;;;;4990315;28;20464;-82
2021/10/26 11:41:27;;;;;;;24.17;18.10;;;15.10;99.90;;;;;;4989712;28;20476;-83
2021/10/26 11:43:56;;;;;;;25.08;19.23;;;15.10;99.90;;;;;;4990577;28;20401;-81
2021/10/26 11:46:28;;;;;;;22.98;20.02;;;15.00;99.90;;;;;;4990782;28;20439;-84
2021/10/26 11:48:57;;;;;;;23.02;19.60;;;14.90;99.90;;;;;;4990906;28;20515;-86
2021/10/26 11:51:28;;;;;;;23.75;19.10;;;14.80;99.90;;;;;;4991185;28;20401;-83
2021/10/26 11:54:03;;;;;;;20.02;17.80;;;14.70;99.90;;;;;;4990775;28;20446;-84
2021/10/26 11:56:32;;;;;;;23.15;18.25;;;14.70;99.90;;;;;;4989792;28;20420;-82
2021/10/26 11:59:03;;;;;;;20.35;18.10;;;14.80;99.90;;;;;;4990373;28;20413;-83
2021/10/26 12:01:39;;;;;;;23.52;18.33;;;14.60;99.90;;;;;;4989155;28;20408;-85
2021/10/26 12:04:13;;;;;;;22.42;17.88;;;14.70;99.90;;;;;;4991919;28;20883;-82
2021/10/26 12:06:39;;;;;;;20.35;16.48;;;14.70;99.90;;;;;;4989659;28;20389;-83
2021/10/26 12:09:10;;;;;;;20.97;16.60;;;14.70;99.90;;;;;;4991078;28;20934;-84
2021/10/26 12:11:37;;;;;;;22.02;16.85;;;14.90;99.90;;;;;;4989106;28;20403;-84
2021/10/26 12:14:13;;;;;;;18.52;15.35;;;14.90;99.90;;;;;;4988697;28;20736;-82
2021/10/26 12:16:41;;;;;;;18.80;15.60;;;14.90;99.90;;;;;;4988301;28;20774;-83
2021/10/26 12:19:09;;;;;;;19.67;14.85;;;15.00;99.90;;;;;;4990459;28;20412;-84
2021/10/26 12:21:34;;;;;;;20.42;16.73;;;15.10;99.90;;;;;;4990649;28;20381;-82
2021/10/26 12:24:00;;;;;;;22.33;16.20;;;15.20;99.90;;;;;;4990202;28;20379;-82
2021/10/26 12:26:26;;;;;;;22.73;15.77;;;15.50;99.90;;;;;;4979878;28;20507;-84
2021/10/26 12:28:56;;;;;;;21.25;16.17;;;15.40;99.90;;;;;;4978977;28;20416;-83
2021/10/26 12:31:26;;;;;;;15.25;13.60;;;15.40;99.90;;;;;;4977782;28;20859;-83
2021/10/26 12:34:01;;;;;;;17.20;14.80;;;15.60;99.90;;;;;;4979692;28;20394;-82
2021/10/26 12:36:27;;;;;;;18.92;15.27;;;15.50;99.90;;;;;;4977777;28;20413;-84
2021/10/26 12:39:05;;;;;;;18.95;14.93;;;15.50;99.90;;;;;;4977376;28;20387;-83
2021/10/26 12:41:38;;;;;;;16.83;13.85;;;15.60;99.90;;;;;;4979237;28;20420;-83
2021/10/26 12:44:07;;;;;;;18.52;13.57;;;15.70;99.90;;;;;;4976908;28;20549;-84